sensor_id;sensor_type;location;lat;lon;timestamp;temperature;humidity
25877;DHT22;13692;47.480;19.216;2023-03-21T00:00:30;10.10;99.90
25877;DHT22;13692;47.480;19.216;2023-03-21T00:02:57;10.10;99.90
25877;DHT22;13692;47.480;19.216;2023-03-21T00:05:24;10.10;99.90
25877;DHT22;13692;47.480;19.216;2023-03-21T00:07:51;10.20;99.90
25877;DHT22;13692;47.480;19.216;2023-03-21T00:10:18;10.20;99.90
25877;DHT22;13692;47.480;19.216;2023-03-21T00:13:04;10.10;99.90
25877;DHT22;13692;47.480;19.216;2023-03-21T00:15:32;10.20;99.90
25877;DHT22;13692;47.480;19.216;2023-03-21T00:18:11;10.20;99.90
25877;DHT22;13692;47.480;19.216;2023-03-21T00:20:38;10.20;99.90
25877;DHT22;13692;47.480;19.216;2023-03-21T00:23:05;10.20;99.90
25877;DHT22;13692;47.480;19.216;2023-03-21T00:25:32;10.30;99.90
25877;DHT22;13692;47.480;19.216;2023-03-21T00:27:59;10.40;99.90
25877;DHT22;13692;47.480;19.216;2023-03-21T00:30:34;10.40;99.90
25877;DHT22;13692;47.480;19.216;2023-03-21T00:33:01;10.40;99.90
25877;DHT22;13692;47.480;19.216;2023-03-21T00:35:41;10.40;99.90
25877;DHT22;13692;47.480;19.216;2023-03-21T00:38:30;10.50;99.90
25877;DHT22;13692;47.480;19.216;2023-03-21T00:40:57;10.50;99.90
25877;DHT22;13692;47.480;19.216;2023-03-21T00:43:30;10.50;99.90
25877;DHT22;13692;47.480;19.216;2023-03-21T00:45:58;10.50;99.90
25877;DHT22;13692;47.480;19.216;2023-03-21T00:48:26;10.50;99.90
25877;DHT22;13692;47.480;19.216;2023-03-21T00:50:55;10.50;99.90
25877;DHT22;13692;47.480;19.216;2023-03-21T00:53:22;10.50;99.90
25877;DHT22;13692;47.480;19.216;2023-03-21T00:55:49;10.40;99.90
25877;DHT22;13692;47.480;19.216;2023-03-21T00:58:17;10.20;99.90
25877;DHT22;13692;47.480;19.216;2023-03-21T01:00:44;10.00;99.90
25877;DHT22;13692;47.480;19.216;2023-03-21T01:03:14;9.90;99.90
25877;DHT22;13692;47.480;19.216;2023-03-21T01:05:51;9.80;99.90
25877;DHT22;13692;47.480;19.216;2023-03-21T01:08:36;9.70;99.90
25877;DHT22;13692;47.480;19.216;2023-03-21T01:11:21;9.60;99.90
25877;DHT22;13692;47.480;19.216;2023-03-21T01:13:48;9.40;99.90
25877;DHT22;13692;47.480;19.216;2023-03-21T01:16:27;9.40;99.90
25877;DHT22;13692;47.480;19.216;2023-03-21T01:18:55;9.40;99.90
25877;DHT22;13692;47.480;19.216;2023-03-21T01:21:22;9.40;99.90
25877;DHT22;13692;47.480;19.216;2023-03-21T01:23:50;9.40;99.90
25877;DHT22;13692;47.480;19.216;2023-03-21T01:26:17;9.40;99.90
25877;DHT22;13692;47.480;19.216;2023-03-21T01:28:44;9.50;99.90
25877;DHT22;13692;47.480;19.216;2023-03-21T01:31:16;9.50;99.90
25877;DHT22;13692;47.480;19.216;2023-03-21T01:33:43;9.50;99.90
25877;DHT22;13692;47.480;19.216;2023-03-21T01:36:17;9.50;99.90
25877;DHT22;13692;47.480;19.216;2023-03-21T01:38:49;9.40;99.90
25877;DHT22;13692;47.480;19.216;2023-03-21T01:41:48;9.40;99.90
25877;DHT22;13692;47.480;19.216;2023-03-21T01:44:17;9.30;99.90
25877;DHT22;13692;47.480;19.216;2023-03-21T01:46:49;9.20;99.90
25877;DHT22;13692;47.480;19.216;2023-03-21T01:49:41;9.20;99.90
25877;DHT22;13692;47.480;19.216;2023-03-21T01:52:16;9.20;99.90
25877;DHT22;13692;47.480;19.216;2023-03-21T01:55:02;9.30;99.90
25877;DHT22;13692;47.480;19.216;2023-03-21T01:57:35;9.30;99.90
25877;DHT22;13692;47.480;19.216;2023-03-21T02:00:23;9.30;99.90
25877;DHT22;13692;47.480;19.216;2023-03-21T02:02:52;9.40;99.90
25877;DHT22;13692;47.480;19.216;2023-03-21T02:08:08;9.50;99.90
25877;DHT22;13692;47.480;19.216;2023-03-21T02:10:35;9.60;99.90
25877;DHT22;13692;47.480;19.216;2023-03-21T02:13:04;9.60;99.90
25877;DHT22;13692;47.480;19.216;2023-03-21T02:15:38;9.60;99.90
25877;DHT22;13692;47.480;19.216;2023-03-21T02:18:21;9.50;99.90
25877;DHT22;13692;47.480;19.216;2023-03-21T02:39:11;9.60;99.90
25877;DHT22;13692;47.480;19.216;2023-03-21T02:41:47;9.70;99.90
25877;DHT22;13692;47.480;19.216;2023-03-21T02:44:25;9.70;99.90
25877;DHT22;13692;47.480;19.216;2023-03-21T02:47:00;9.80;99.90
25877;DHT22;13692;47.480;19.216;2023-03-21T02:49:34;9.80;99.90
25877;DHT22;13692;47.480;19.216;2023-03-21T02:52:10;9.90;99.90
25877;DHT22;13692;47.480;19.216;2023-03-21T02:54:51;9.90;99.90
25877;DHT22;13692;47.480;19.216;2023-03-21T02:57:19;10.00;99.90
25877;DHT22;13692;47.480;19.216;2023-03-21T02:59:49;10.00;99.90
25877;DHT22;13692;47.480;19.216;2023-03-21T03:02:26;10.00;99.90
25877;DHT22;13692;47.480;19.216;2023-03-21T03:04:54;10.10;99.90
25877;DHT22;13692;47.480;19.216;2023-03-21T03:10:31;10.10;99.90
25877;DHT22;13692;47.480;19.216;2023-03-21T03:18:27;10.20;99.90
25877;DHT22;13692;47.480;19.216;2023-03-21T03:23:53;10.30;99.90
25877;DHT22;13692;47.480;19.216;2023-03-21T03:26:24;10.30;99.90
25877;DHT22;13692;47.480;19.216;2023-03-21T03:28:57;10.30;99.90
25877;DHT22;13692;47.480;19.216;2023-03-21T03:31:31;10.30;99.90
25877;DHT22;13692;47.480;19.216;2023-03-21T03:34:04;10.30;99.90
25877;DHT22;13692;47.480;19.216;2023-03-21T03:36:37;10.30;99.90
25877;DHT22;13692;47.480;19.216;2023-03-21T03:39:10;10.30;99.90
25877;DHT22;13692;47.480;19.216;2023-03-21T03:41:50;10.40;99.90
25877;DHT22;13692;47.480;19.216;2023-03-21T03:44:38;10.40;99.90
25877;DHT22;13692;47.480;19.216;2023-03-21T03:47:15;10.30;99.90
25877;DHT22;13692;47.480;19.216;2023-03-21T03:50:08;10.30;99.90
25877;DHT22;13692;47.480;19.216;2023-03-21T03:52:48;10.40;99.90
25877;DHT22;13692;47.480;19.216;2023-03-21T03:55:24;10.30;99.90
25877;DHT22;13692;47.480;19.216;2023-03-21T03:57:54;10.40;99.90
25877;DHT22;13692;47.480;19.216;2023-03-21T04:00:21;10.40;99.90
25877;DHT22;13692;47.480;19.216;2023-03-21T04:02:48;10.40;99.90
25877;DHT22;13692;47.480;19.216;2023-03-21T04:05:15;10.40;99.90
25877;DHT22;13692;47.480;19.216;2023-03-21T04:07:47;10.40;99.90
25877;DHT22;13692;47.480;19.216;2023-03-21T04:10:17;10.40;99.90
25877;DHT22;13692;47.480;19.216;2023-03-21T04:12:44;10.40;99.90
25877;DHT22;13692;47.480;19.216;2023-03-21T04:15:11;10.30;99.90
25877;DHT22;13692;47.480;19.216;2023-03-21T04:17:38;10.30;99.90
25877;DHT22;13692;47.480;19.216;2023-03-21T04:20:06;10.30;99.90
25877;DHT22;13692;47.480;19.216;2023-03-21T04:22:49;10.40;99.90
25877;DHT22;13692;47.480;19.216;2023-03-21T04:25:17;10.40;99.90
25877;DHT22;13692;47.480;19.216;2023-03-21T04:27:58;10.40;99.90
25877;DHT22;13692;47.480;19.216;2023-03-21T04:30:25;10.40;99.90
25877;DHT22;13692;47.480;19.216;2023-03-21T04:32:52;10.40;99.90
25877;DHT22;13692;47.480;19.216;2023-03-21T04:35:27;10.40;99.90
25877;DHT22;13692;47.480;19.216;2023-03-21T04:37:55;10.40;99.90
25877;DHT22;13692;47.480;19.216;2023-03-21T04:40:22;10.40;99.90
25877;DHT22;13692;47.480;19.216;2023-03-21T04:42:50;10.40;99.90
25877;DHT22;13692;47.480;19.216;2023-03-21T04:45:17;10.30;99.90
25877;DHT22;13692;47.480;19.216;2023-03-21T04:47:44;10.20;99.90
25877;DHT22;13692;47.480;19.216;2023-03-21T04:50:11;10.20;99.90
25877;DHT22;13692;47.480;19.216;2023-03-21T04:52:39;10.10;99.90
25877;DHT22;13692;47.480;19.216;2023-03-21T04:55:06;10.00;99.90
25877;DHT22;13692;47.480;19.216;2023-03-21T04:57:36;10.00;99.90
25877;DHT22;13692;47.480;19.216;2023-03-21T05:00:05;9.90;99.90
25877;DHT22;13692;47.480;19.216;2023-03-21T05:02:36;9.90;99.90
25877;DHT22;13692;47.480;19.216;2023-03-21T05:05:04;9.90;99.90
25877;DHT22;13692;47.480;19.216;2023-03-21T05:07:31;10.00;99.90
25877;DHT22;13692;47.480;19.216;2023-03-21T05:09:58;10.00;99.90
25877;DHT22;13692;47.480;19.216;2023-03-21T05:12:28;10.00;99.90
25877;DHT22;13692;47.480;19.216;2023-03-21T05:14:54;10.00;99.90
25877;DHT22;13692;47.480;19.216;2023-03-21T05:17:21;10.00;99.90
25877;DHT22;13692;47.480;19.216;2023-03-21T05:19:50;10.00;99.90
25877;DHT22;13692;47.480;19.216;2023-03-21T05:22:19;10.00;99.90
25877;DHT22;13692;47.480;19.216;2023-03-21T05:24:46;10.10;99.90
25877;DHT22;13692;47.480;19.216;2023-03-21T05:27:17;10.10;99.90
25877;DHT22;13692;47.480;19.216;2023-03-21T05:30:04;10.20;99.90
25877;DHT22;13692;47.480;19.216;2023-03-21T05:32:33;10.20;99.90
25877;DHT22;13692;47.480;19.216;2023-03-21T05:35:00;10.10;99.90
25877;DHT22;13692;47.480;19.216;2023-03-21T05:37:27;10.20;99.90
25877;DHT22;13692;47.480;19.216;2023-03-21T05:39:54;10.30;99.90
25877;DHT22;13692;47.480;19.216;2023-03-21T05:42:22;10.60;99.90
25877;DHT22;13692;47.480;19.216;2023-03-21T05:44:49;10.90;99.90
25877;DHT22;13692;47.480;19.216;2023-03-21T05:47:16;10.90;99.90
25877;DHT22;13692;47.480;19.216;2023-03-21T05:49:44;11.10;99.90
25877;DHT22;13692;47.480;19.216;2023-03-21T05:52:11;11.10;99.90
25877;DHT22;13692;47.480;19.216;2023-03-21T05:54:38;11.20;99.90
25877;DHT22;13692;47.480;19.216;2023-03-21T05:57:05;11.60;99.90
25877;DHT22;13692;47.480;19.216;2023-03-21T05:59:33;12.20;99.90
25877;DHT22;13692;47.480;19.216;2023-03-21T06:02:00;12.80;99.90
25877;DHT22;13692;47.480;19.216;2023-03-21T06:04:28;13.40;99.90
25877;DHT22;13692;47.480;19.216;2023-03-21T06:06:55;13.70;99.90
25877;DHT22;13692;47.480;19.216;2023-03-21T06:09:22;13.60;99.90
25877;DHT22;13692;47.480;19.216;2023-03-21T06:11:51;13.60;99.90
25877;DHT22;13692;47.480;19.216;2023-03-21T06:14:19;13.50;99.90
25877;DHT22;13692;47.480;19.216;2023-03-21T06:16:47;13.50;99.90
25877;DHT22;13692;47.480;19.216;2023-03-21T06:19:14;13.50;99.90
25877;DHT22;13692;47.480;19.216;2023-03-21T06:21:41;13.60;99.90
25877;DHT22;13692;47.480;19.216;2023-03-21T06:24:08;13.80;99.90
25877;DHT22;13692;47.480;19.216;2023-03-21T06:26:36;14.10;99.90
25877;DHT22;13692;47.480;19.216;2023-03-21T06:29:04;14.20;99.90
25877;DHT22;13692;47.480;19.216;2023-03-21T06:31:31;14.20;99.90
25877;DHT22;13692;47.480;19.216;2023-03-21T06:33:58;14.50;99.90
25877;DHT22;13692;47.480;19.216;2023-03-21T06:36:25;15.00;99.90
25877;DHT22;13692;47.480;19.216;2023-03-21T06:38:52;15.40;99.90
25877;DHT22;13692;47.480;19.216;2023-03-21T06:41:19;15.80;99.90
25877;DHT22;13692;47.480;19.216;2023-03-21T06:43:46;16.10;99.90
25877;DHT22;13692;47.480;19.216;2023-03-21T06:46:14;16.60;99.90
25877;DHT22;13692;47.480;19.216;2023-03-21T06:48:41;16.90;99.90
25877;DHT22;13692;47.480;19.216;2023-03-21T06:51:14;17.20;99.90
25877;DHT22;13692;47.480;19.216;2023-03-21T06:53:41;17.60;99.90
25877;DHT22;13692;47.480;19.216;2023-03-21T06:56:09;17.90;99.90
25877;DHT22;13692;47.480;19.216;2023-03-21T06:58:36;18.20;99.90
25877;DHT22;13692;47.480;19.216;2023-03-21T07:01:04;18.50;99.90
25877;DHT22;13692;47.480;19.216;2023-03-21T07:03:33;18.80;99.90
25877;DHT22;13692;47.480;19.216;2023-03-21T07:06:07;19.00;99.90
25877;DHT22;13692;47.480;19.216;2023-03-21T07:08:38;19.40;99.90
25877;DHT22;13692;47.480;19.216;2023-03-21T07:11:05;19.50;99.90
25877;DHT22;13692;47.480;19.216;2023-03-21T07:13:32;19.70;99.90
25877;DHT22;13692;47.480;19.216;2023-03-21T07:15:59;19.90;99.60
25877;DHT22;13692;47.480;19.216;2023-03-21T07:18:26;20.10;98.60
25877;DHT22;13692;47.480;19.216;2023-03-21T07:20:53;20.40;97.70
25877;DHT22;13692;47.480;19.216;2023-03-21T07:23:23;20.80;97.20
25877;DHT22;13692;47.480;19.216;2023-03-21T07:25:52;20.90;95.90
25877;DHT22;13692;47.480;19.216;2023-03-21T07:28:21;21.00;95.60
25877;DHT22;13692;47.480;19.216;2023-03-21T07:30:56;21.20;94.90
25877;DHT22;13692;47.480;19.216;2023-03-21T07:33:24;21.50;94.60
25877;DHT22;13692;47.480;19.216;2023-03-21T07:35:52;21.70;93.60
25877;DHT22;13692;47.480;19.216;2023-03-21T07:38:20;21.40;93.10
25877;DHT22;13692;47.480;19.216;2023-03-21T07:40:47;21.30;93.40
25877;DHT22;13692;47.480;19.216;2023-03-21T07:43:15;21.20;93.30
25877;DHT22;13692;47.480;19.216;2023-03-21T07:45:43;21.30;93.20
25877;DHT22;13692;47.480;19.216;2023-03-21T07:48:11;21.50;93.00
25877;DHT22;13692;47.480;19.216;2023-03-21T07:50:43;21.80;92.50
25877;DHT22;13692;47.480;19.216;2023-03-21T07:53:10;22.00;91.90
25877;DHT22;13692;47.480;19.216;2023-03-21T07:55:37;22.30;91.70
25877;DHT22;13692;47.480;19.216;2023-03-21T07:58:04;22.50;90.70
25877;DHT22;13692;47.480;19.216;2023-03-21T08:00:31;22.50;90.40
25877;DHT22;13692;47.480;19.216;2023-03-21T08:02:59;22.60;90.40
25877;DHT22;13692;47.480;19.216;2023-03-21T08:05:29;22.80;89.90
25877;DHT22;13692;47.480;19.216;2023-03-21T08:07:56;23.10;88.20
25877;DHT22;13692;47.480;19.216;2023-03-21T08:10:24;23.10;87.20
25877;DHT22;13692;47.480;19.216;2023-03-21T08:12:51;23.30;86.20
25877;DHT22;13692;47.480;19.216;2023-03-21T08:15:18;23.60;84.60
25877;DHT22;13692;47.480;19.216;2023-03-21T08:17:45;23.70;85.00
25877;DHT22;13692;47.480;19.216;2023-03-21T08:20:20;23.70;83.50
25877;DHT22;13692;47.480;19.216;2023-03-21T08:22:47;23.60;83.60
25877;DHT22;13692;47.480;19.216;2023-03-21T08:25:16;23.50;82.60
25877;DHT22;13692;47.480;19.216;2023-03-21T08:27:45;23.20;82.70
25877;DHT22;13692;47.480;19.216;2023-03-21T08:30:14;23.20;83.40
25877;DHT22;13692;47.480;19.216;2023-03-21T08:32:42;23.40;82.80
25877;DHT22;13692;47.480;19.216;2023-03-21T08:35:11;23.60;81.70
25877;DHT22;13692;47.480;19.216;2023-03-21T08:37:40;23.80;81.40
25877;DHT22;13692;47.480;19.216;2023-03-21T08:40:10;24.10;81.20
25877;DHT22;13692;47.480;19.216;2023-03-21T08:42:40;24.40;80.00
25877;DHT22;13692;47.480;19.216;2023-03-21T08:45:08;24.60;78.80
25877;DHT22;13692;47.480;19.216;2023-03-21T08:47:35;24.70;78.00
25877;DHT22;13692;47.480;19.216;2023-03-21T08:50:04;24.80;77.10
25877;DHT22;13692;47.480;19.216;2023-03-21T08:52:32;25.00;77.10
25877;DHT22;13692;47.480;19.216;2023-03-21T08:55:00;25.30;76.60
25877;DHT22;13692;47.480;19.216;2023-03-21T08:57:28;25.40;75.50
25877;DHT22;13692;47.480;19.216;2023-03-21T08:59:55;25.50;74.70
25877;DHT22;13692;47.480;19.216;2023-03-21T09:02:22;25.60;74.50
25877;DHT22;13692;47.480;19.216;2023-03-21T09:04:49;25.80;73.50
25877;DHT22;13692;47.480;19.216;2023-03-21T09:07:20;25.90;72.90
25877;DHT22;13692;47.480;19.216;2023-03-21T09:09:47;25.90;72.90
25877;DHT22;13692;47.480;19.216;2023-03-21T09:12:38;26.00;72.40
25877;DHT22;13692;47.480;19.216;2023-03-21T09:15:08;26.00;71.50
25877;DHT22;13692;47.480;19.216;2023-03-21T09:17:35;26.00;70.20
25877;DHT22;13692;47.480;19.216;2023-03-21T09:20:02;25.40;69.60
25877;DHT22;13692;47.480;19.216;2023-03-21T09:22:37;25.30;68.40
25877;DHT22;13692;47.480;19.216;2023-03-21T09:25:08;25.40;68.00
25877;DHT22;13692;47.480;19.216;2023-03-21T09:27:37;25.60;69.10
25877;DHT22;13692;47.480;19.216;2023-03-21T09:30:05;25.70;68.00
25877;DHT22;13692;47.480;19.216;2023-03-21T09:32:33;25.70;67.50
25877;DHT22;13692;47.480;19.216;2023-03-21T09:35:00;25.80;66.70
25877;DHT22;13692;47.480;19.216;2023-03-21T09:37:27;25.90;65.00
25877;DHT22;13692;47.480;19.216;2023-03-21T09:39:54;25.90;62.70
25877;DHT22;13692;47.480;19.216;2023-03-21T09:47:45;23.00;67.40
25877;DHT22;13692;47.480;19.216;2023-03-21T09:50:28;22.70;68.50
25877;DHT22;13692;47.480;19.216;2023-03-21T09:55:35;21.90;70.20
25877;DHT22;13692;47.480;19.216;2023-03-21T10:01:02;21.40;72.60
25877;DHT22;13692;47.480;19.216;2023-03-21T10:03:33;21.10;73.60
25877;DHT22;13692;47.480;19.216;2023-03-21T10:06:08;20.80;75.90
25877;DHT22;13692;47.480;19.216;2023-03-21T10:08:39;20.60;77.40
25877;DHT22;13692;47.480;19.216;2023-03-21T10:11:23;20.40;74.80
25877;DHT22;13692;47.480;19.216;2023-03-21T10:13:56;20.30;77.30
25877;DHT22;13692;47.480;19.216;2023-03-21T10:16:43;20.30;78.10
25877;DHT22;13692;47.480;19.216;2023-03-21T10:19:14;20.20;79.10
25877;DHT22;13692;47.480;19.216;2023-03-21T10:21:44;20.00;80.50
25877;DHT22;13692;47.480;19.216;2023-03-21T10:24:32;19.80;81.30
25877;DHT22;13692;47.480;19.216;2023-03-21T10:27:01;19.60;81.60
25877;DHT22;13692;47.480;19.216;2023-03-21T10:29:43;19.80;81.60
25877;DHT22;13692;47.480;19.216;2023-03-21T10:32:16;20.20;81.50
25877;DHT22;13692;47.480;19.216;2023-03-21T10:34:55;20.60;80.70
25877;DHT22;13692;47.480;19.216;2023-03-21T10:37:27;20.90;79.30
25877;DHT22;13692;47.480;19.216;2023-03-21T10:39:54;21.20;79.50
25877;DHT22;13692;47.480;19.216;2023-03-21T10:42:25;21.40;78.00
25877;DHT22;13692;47.480;19.216;2023-03-21T10:44:54;21.50;77.50
25877;DHT22;13692;47.480;19.216;2023-03-21T10:47:32;21.70;77.20
25877;DHT22;13692;47.480;19.216;2023-03-21T10:50:05;21.70;76.10
25877;DHT22;13692;47.480;19.216;2023-03-21T10:52:37;21.80;76.10
25877;DHT22;13692;47.480;19.216;2023-03-21T10:55:24;21.70;75.80
25877;DHT22;13692;47.480;19.216;2023-03-21T10:58:01;21.70;76.30
25877;DHT22;13692;47.480;19.216;2023-03-21T11:00:34;21.70;76.60
25877;DHT22;13692;47.480;19.216;2023-03-21T11:03:02;21.70;76.40
25877;DHT22;13692;47.480;19.216;2023-03-21T11:05:39;21.60;76.10
25877;DHT22;13692;47.480;19.216;2023-03-21T11:08:26;21.50;76.80
25877;DHT22;13692;47.480;19.216;2023-03-21T11:11:05;21.30;76.50
25877;DHT22;13692;47.480;19.216;2023-03-21T11:13:43;21.10;76.60
25877;DHT22;13692;47.480;19.216;2023-03-21T11:16:11;21.10;75.80
25877;DHT22;13692;47.480;19.216;2023-03-21T11:18:49;21.20;72.50
25877;DHT22;13692;47.480;19.216;2023-03-21T11:21:17;21.10;70.80
25877;DHT22;13692;47.480;19.216;2023-03-21T11:23:46;21.00;70.90
25877;DHT22;13692;47.480;19.216;2023-03-21T11:26:35;20.80;71.50
25877;DHT22;13692;47.480;19.216;2023-03-21T11:29:25;20.40;73.60
25877;DHT22;13692;47.480;19.216;2023-03-21T11:31:53;19.90;75.60
25877;DHT22;13692;47.480;19.216;2023-03-21T11:34:26;19.70;76.30
25877;DHT22;13692;47.480;19.216;2023-03-21T11:36:58;19.50;77.10
25877;DHT22;13692;47.480;19.216;2023-03-21T11:39:35;19.40;77.60
25877;DHT22;13692;47.480;19.216;2023-03-21T11:42:31;19.50;76.50
25877;DHT22;13692;47.480;19.216;2023-03-21T11:45:21;19.40;75.70
25877;DHT22;13692;47.480;19.216;2023-03-21T11:47:50;19.30;75.20
25877;DHT22;13692;47.480;19.216;2023-03-21T12:01:18;19.40;77.50
25877;DHT22;13692;47.480;19.216;2023-03-21T12:18:05;19.40;76.60
25877;DHT22;13692;47.480;19.216;2023-03-21T12:27:15;20.10;76.90
25877;DHT22;13692;47.480;19.216;2023-03-21T12:29:28;20.00;77.10
25877;DHT22;13692;47.480;19.216;2023-03-21T12:43:48;19.60;76.30
25877;DHT22;13692;47.480;19.216;2023-03-21T12:49:28;19.90;75.70
25877;DHT22;13692;47.480;19.216;2023-03-21T12:52:03;20.10;76.10
25877;DHT22;13692;47.480;19.216;2023-03-21T12:54:43;20.30;74.80
25877;DHT22;13692;47.480;19.216;2023-03-21T13:02:32;20.60;73.50
25877;DHT22;13692;47.480;19.216;2023-03-21T13:05:30;20.60;72.50
25877;DHT22;13692;47.480;19.216;2023-03-21T13:10:33;20.40;73.00
25877;DHT22;13692;47.480;19.216;2023-03-21T13:24:17;19.50;75.80
25877;DHT22;13692;47.480;19.216;2023-03-21T13:26:47;19.40;76.10
25877;DHT22;13692;47.480;19.216;2023-03-21T13:29:33;19.10;77.10
25877;DHT22;13692;47.480;19.216;2023-03-21T13:32:18;19.00;78.00
25877;DHT22;13692;47.480;19.216;2023-03-21T13:37:33;18.70;79.20
25877;DHT22;13692;47.480;19.216;2023-03-21T13:40:06;18.50;77.80
25877;DHT22;13692;47.480;19.216;2023-03-21T13:42:43;18.50;77.90
25877;DHT22;13692;47.480;19.216;2023-03-21T13:45:24;18.50;77.70
25877;DHT22;13692;47.480;19.216;2023-03-21T13:50:48;18.70;76.60
25877;DHT22;13692;47.480;19.216;2023-03-21T13:55:43;19.10;76.50
25877;DHT22;13692;47.480;19.216;2023-03-21T14:04:11;19.50;75.90
25877;DHT22;13692;47.480;19.216;2023-03-21T14:06:54;19.50;75.20
25877;DHT22;13692;47.480;19.216;2023-03-21T14:10:07;19.40;75.00
25877;DHT22;13692;47.480;19.216;2023-03-21T14:12:29;19.40;75.20
25877;DHT22;13692;47.480;19.216;2023-03-21T14:15:06;19.50;74.90
25877;DHT22;13692;47.480;19.216;2023-03-21T14:22:49;19.30;76.40
25877;DHT22;13692;47.480;19.216;2023-03-21T14:25:19;19.30;77.00
25877;DHT22;13692;47.480;19.216;2023-03-21T14:27:54;19.20;77.70
25877;DHT22;13692;47.480;19.216;2023-03-21T14:32:58;19.20;76.80
25877;DHT22;13692;47.480;19.216;2023-03-21T14:35:31;19.20;76.40
25877;DHT22;13692;47.480;19.216;2023-03-21T14:38:04;19.30;75.50
25877;DHT22;13692;47.480;19.216;2023-03-21T14:40:33;19.20;74.20
25877;DHT22;13692;47.480;19.216;2023-03-21T14:43:05;19.10;73.50
25877;DHT22;13692;47.480;19.216;2023-03-21T14:45:34;19.20;74.20
25877;DHT22;13692;47.480;19.216;2023-03-21T14:48:29;19.10;74.30
25877;DHT22;13692;47.480;19.216;2023-03-21T14:51:01;19.10;73.80
25877;DHT22;13692;47.480;19.216;2023-03-21T14:53:31;19.10;73.80
25877;DHT22;13692;47.480;19.216;2023-03-21T14:56:16;19.00;74.40
25877;DHT22;13692;47.480;19.216;2023-03-21T14:58:46;19.00;74.80
25877;DHT22;13692;47.480;19.216;2023-03-21T15:01:19;18.90;74.50
25877;DHT22;13692;47.480;19.216;2023-03-21T15:03:49;18.90;74.60
25877;DHT22;13692;47.480;19.216;2023-03-21T15:06:17;18.90;76.10
25877;DHT22;13692;47.480;19.216;2023-03-21T15:08:59;18.90;75.80
25877;DHT22;13692;47.480;19.216;2023-03-21T15:11:36;18.90;76.20
25877;DHT22;13692;47.480;19.216;2023-03-21T15:14:06;18.90;76.60
25877;DHT22;13692;47.480;19.216;2023-03-21T15:16:35;18.90;77.30
25877;DHT22;13692;47.480;19.216;2023-03-21T15:19:03;18.90;77.30
25877;DHT22;13692;47.480;19.216;2023-03-21T15:21:37;18.90;77.30
25877;DHT22;13692;47.480;19.216;2023-03-21T15:24:12;18.90;77.40
25877;DHT22;13692;47.480;19.216;2023-03-21T15:26:47;18.90;77.10
25877;DHT22;13692;47.480;19.216;2023-03-21T15:29:16;18.90;77.50
25877;DHT22;13692;47.480;19.216;2023-03-21T15:31:46;18.90;77.30
25877;DHT22;13692;47.480;19.216;2023-03-21T15:34:22;18.90;76.50
25877;DHT22;13692;47.480;19.216;2023-03-21T15:37:00;18.80;76.60
25877;DHT22;13692;47.480;19.216;2023-03-21T15:39:28;18.70;76.30
25877;DHT22;13692;47.480;19.216;2023-03-21T15:42:03;18.60;76.50
25877;DHT22;13692;47.480;19.216;2023-03-21T15:44:32;18.50;77.30
25877;DHT22;13692;47.480;19.216;2023-03-21T15:47:00;18.40;77.30
25877;DHT22;13692;47.480;19.216;2023-03-21T15:49:32;18.30;78.20
25877;DHT22;13692;47.480;19.216;2023-03-21T15:52:06;18.30;79.10
25877;DHT22;13692;47.480;19.216;2023-03-21T15:54:48;18.20;79.70
25877;DHT22;13692;47.480;19.216;2023-03-21T15:57:28;18.10;80.40
25877;DHT22;13692;47.480;19.216;2023-03-21T16:00:21;18.00;81.10
25877;DHT22;13692;47.480;19.216;2023-03-21T16:02:55;17.90;81.70
25877;DHT22;13692;47.480;19.216;2023-03-21T16:05:29;17.80;82.10
25877;DHT22;13692;47.480;19.216;2023-03-21T16:08:22;17.80;82.20
25877;DHT22;13692;47.480;19.216;2023-03-21T16:10:45;17.70;82.20
25877;DHT22;13692;47.480;19.216;2023-03-21T16:13:14;17.60;82.80
25877;DHT22;13692;47.480;19.216;2023-03-21T16:15:42;17.40;82.90
25877;DHT22;13692;47.480;19.216;2023-03-21T16:18:14;17.40;83.20
25877;DHT22;13692;47.480;19.216;2023-03-21T16:20:44;17.30;83.70
25877;DHT22;13692;47.480;19.216;2023-03-21T16:23:13;17.20;84.00
25877;DHT22;13692;47.480;19.216;2023-03-21T16:25:42;17.20;84.00
25877;DHT22;13692;47.480;19.216;2023-03-21T16:28:13;17.10;84.30
25877;DHT22;13692;47.480;19.216;2023-03-21T16:30:41;17.00;84.30
25877;DHT22;13692;47.480;19.216;2023-03-21T16:33:12;17.00;84.40
25877;DHT22;13692;47.480;19.216;2023-03-21T16:35:39;16.90;84.40
25877;DHT22;13692;47.480;19.216;2023-03-21T16:38:08;16.80;84.40
25877;DHT22;13692;47.480;19.216;2023-03-21T16:40:37;16.70;84.70
25877;DHT22;13692;47.480;19.216;2023-03-21T16:43:06;16.60;84.70
25877;DHT22;13692;47.480;19.216;2023-03-21T16:45:33;16.60;85.00
25877;DHT22;13692;47.480;19.216;2023-03-21T16:48:00;16.50;85.00
25877;DHT22;13692;47.480;19.216;2023-03-21T16:50:31;16.40;85.30
25877;DHT22;13692;47.480;19.216;2023-03-21T16:52:59;16.30;85.50
25877;DHT22;13692;47.480;19.216;2023-03-21T16:55:27;16.20;85.90
25877;DHT22;13692;47.480;19.216;2023-03-21T16:57:54;16.20;86.30
25877;DHT22;13692;47.480;19.216;2023-03-21T17:00:25;16.10;87.00
25877;DHT22;13692;47.480;19.216;2023-03-21T17:02:54;16.00;87.30
25877;DHT22;13692;47.480;19.216;2023-03-21T17:05:25;15.90;87.90
25877;DHT22;13692;47.480;19.216;2023-03-21T17:07:53;15.90;88.40
25877;DHT22;13692;47.480;19.216;2023-03-21T17:10:22;15.80;88.90
25877;DHT22;13692;47.480;19.216;2023-03-21T17:12:51;15.70;89.20
25877;DHT22;13692;47.480;19.216;2023-03-21T17:15:18;15.70;89.50
25877;DHT22;13692;47.480;19.216;2023-03-21T17:17:45;15.60;89.90
25877;DHT22;13692;47.480;19.216;2023-03-21T17:20:20;15.60;90.00
25877;DHT22;13692;47.480;19.216;2023-03-21T17:22:48;15.50;90.20
25877;DHT22;13692;47.480;19.216;2023-03-21T17:25:16;15.40;90.10
25877;DHT22;13692;47.480;19.216;2023-03-21T17:27:44;15.40;90.20
25877;DHT22;13692;47.480;19.216;2023-03-21T17:30:29;15.30;90.40
25877;DHT22;13692;47.480;19.216;2023-03-21T17:32:57;15.30;90.50
25877;DHT22;13692;47.480;19.216;2023-03-21T17:35:25;15.20;90.60
25877;DHT22;13692;47.480;19.216;2023-03-21T17:37:52;15.20;90.70
25877;DHT22;13692;47.480;19.216;2023-03-21T17:40:25;15.10;90.80
25877;DHT22;13692;47.480;19.216;2023-03-21T17:42:55;15.10;90.90
25877;DHT22;13692;47.480;19.216;2023-03-21T17:45:22;15.10;91.00
25877;DHT22;13692;47.480;19.216;2023-03-21T17:47:50;15.00;91.10
25877;DHT22;13692;47.480;19.216;2023-03-21T17:50:23;14.90;91.30
25877;DHT22;13692;47.480;19.216;2023-03-21T17:52:51;14.90;91.40
25877;DHT22;13692;47.480;19.216;2023-03-21T17:55:19;14.90;91.40